DNMM

Murtala Muhammed International Airport

Lagos, Nigeria

DNMM 110900Z 31004KT 1500 HZ NSC 28/25 Q1014 NOSIG

Observed Flight Rules
Dec-11 @ 09:00 UTC (21 minutes ago) Instrument Flight Rules
Wind Visibility Clouds Conditions
310° at 4 knots 1,497 meters
  • Clear skies
  • Haze
Temperatures Readings
Current 28°C / 82°F
Dewpoint 25°C / 77°F
Humidity 84%
Altimeter 29.94" Hg
Pressure 1014 hPa
Elevation 38
Observed Flight Rules
Dec-11 @ 09:00 UTC
(21 minutes ago)
LIFR
Wind Visibility
310° at 4 knots 1,497 meters
Clouds
  • Clear skies
Conditions
  • Haze
Temperature Dewpoint
28°C / 82°F 25°C / 77°F
Humidity Altimeter Pressure
84% 29.94" Hg 1014 hPa